sensor_id;sensor_type;location;lat;lon;timestamp;pressure;altitude;pressure_sealevel;temperature;humidity
15405;BME280;7801;48.124;11.590;2023-05-03T00:01:37;96104.25;;;10.14;95.39
15405;BME280;7801;48.124;11.590;2023-05-03T00:04:04;96105.59;;;10.02;96.10
15405;BME280;7801;48.124;11.590;2023-05-03T00:06:31;96113.78;;;10.10;95.60
15405;BME280;7801;48.124;11.590;2023-05-03T00:08:57;96108.03;;;9.93;95.98
15405;BME280;7801;48.124;11.590;2023-05-03T00:11:22;96099.50;;;10.01;95.79
15405;BME280;7801;48.124;11.590;2023-05-03T00:13:48;96100.00;;;10.08;95.00
15405;BME280;7801;48.124;11.590;2023-05-03T00:16:13;96110.06;;;10.11;94.85
15405;BME280;7801;48.124;11.590;2023-05-03T00:18:39;96102.66;;;10.08;94.77
15405;BME280;7801;48.124;11.590;2023-05-03T00:21:04;96094.19;;;10.01;94.92
15405;BME280;7801;48.124;11.590;2023-05-03T00:23:31;96099.00;;;9.94;95.08
15405;BME280;7801;48.124;11.590;2023-05-03T00:25:57;96092.66;;;9.85;95.57
15405;BME280;7801;48.124;11.590;2023-05-03T00:28:25;96086.81;;;9.93;95.42
15405;BME280;7801;48.124;11.590;2023-05-03T00:30:52;96094.56;;;9.74;96.27
15405;BME280;7801;48.124;11.590;2023-05-03T00:33:17;96096.09;;;9.80;95.81
15405;BME280;7801;48.124;11.590;2023-05-03T00:35:43;96098.22;;;9.78;95.76
15405;BME280;7801;48.124;11.590;2023-05-03T00:38:11;96086.56;;;9.89;95.54
15405;BME280;7801;48.124;11.590;2023-05-03T00:40:42;96087.34;;;9.90;95.15
15405;BME280;7801;48.124;11.590;2023-05-03T00:43:10;96088.16;;;9.85;94.99
15405;BME280;7801;48.124;11.590;2023-05-03T00:45:37;96082.59;;;9.87;95.04
15405;BME280;7801;48.124;11.590;2023-05-03T00:48:03;96078.31;;;9.96;94.57
15405;BME280;7801;48.124;11.590;2023-05-03T00:50:29;96082.06;;;9.85;94.64
15405;BME280;7801;48.124;11.590;2023-05-03T00:52:57;96082.84;;;9.85;94.62
15405;BME280;7801;48.124;11.590;2023-05-03T00:55:26;96080.75;;;9.82;95.15
15405;BME280;7801;48.124;11.590;2023-05-03T00:57:57;96080.25;;;9.60;95.74
15405;BME280;7801;48.124;11.590;2023-05-03T01:00:24;96083.16;;;9.74;95.18
15405;BME280;7801;48.124;11.590;2023-05-03T01:02:50;96078.66;;;9.59;95.95
15405;BME280;7801;48.124;11.590;2023-05-03T01:05:17;96083.44;;;9.67;95.87
15405;BME280;7801;48.124;11.590;2023-05-03T01:10:50;96084.50;;;9.66;95.35
15405;BME280;7801;48.124;11.590;2023-05-03T01:13:51;96082.38;;;9.63;95.75
15405;BME280;7801;48.124;11.590;2023-05-03T01:16:52;96084.75;;;9.70;95.31
15405;BME280;7801;48.124;11.590;2023-05-03T01:19:50;96089.03;;;9.50;95.87
15405;BME280;7801;48.124;11.590;2023-05-03T01:23:00;96083.69;;;9.60;95.86
15405;BME280;7801;48.124;11.590;2023-05-03T01:25:33;96086.13;;;9.32;96.85
15405;BME280;7801;48.124;11.590;2023-05-03T01:28:00;96085.31;;;9.21;97.26
15405;BME280;7801;48.124;11.590;2023-05-03T01:30:38;96081.38;;;9.08;96.76
15405;BME280;7801;48.124;11.590;2023-05-03T01:33:30;96078.97;;;9.02;97.03
15405;BME280;7801;48.124;11.590;2023-05-03T01:36:05;96080.59;;;9.13;95.85
15405;BME280;7801;48.124;11.590;2023-05-03T01:38:36;96090.63;;;8.90;96.08
15405;BME280;7801;48.124;11.590;2023-05-03T01:41:08;96090.87;;;9.04;96.03
15405;BME280;7801;48.124;11.590;2023-05-03T01:43:48;96092.22;;;8.91;96.21
15405;BME280;7801;48.124;11.590;2023-05-03T01:46:15;96085.31;;;9.01;96.33
15405;BME280;7801;48.124;11.590;2023-05-03T01:48:42;96084.03;;;9.13;95.91
15405;BME280;7801;48.124;11.590;2023-05-03T01:51:08;96082.69;;;9.16;96.19
15405;BME280;7801;48.124;11.590;2023-05-03T01:53:36;96081.63;;;9.17;96.02
15405;BME280;7801;48.124;11.590;2023-05-03T01:56:04;96069.72;;;9.19;96.29
15405;BME280;7801;48.124;11.590;2023-05-03T01:58:31;96076.06;;;9.28;95.88
15405;BME280;7801;48.124;11.590;2023-05-03T02:00:57;96075.78;;;9.40;95.04
15405;BME280;7801;48.124;11.590;2023-05-03T02:03:24;96080.56;;;9.48;94.77
15405;BME280;7801;48.124;11.590;2023-05-03T02:05:50;96079.22;;;9.46;94.78
15405;BME280;7801;48.124;11.590;2023-05-03T02:08:16;96081.59;;;9.42;94.50
15405;BME280;7801;48.124;11.590;2023-05-03T02:10:44;96088.50;;;9.48;95.43
15405;BME280;7801;48.124;11.590;2023-05-03T02:13:10;96093.25;;;9.36;96.00
15405;BME280;7801;48.124;11.590;2023-05-03T02:15:36;96089.31;;;9.34;96.07
15405;BME280;7801;48.124;11.590;2023-05-03T02:18:02;96090.09;;;9.49;95.62
15405;BME280;7801;48.124;11.590;2023-05-03T02:20:29;96092.22;;;9.32;96.36
15405;BME280;7801;48.124;11.590;2023-05-03T02:23:04;96092.72;;;9.39;96.38
15405;BME280;7801;48.124;11.590;2023-05-03T02:25:30;96092.22;;;9.27;96.50
15405;BME280;7801;48.124;11.590;2023-05-03T02:27:56;96092.47;;;9.46;96.15
15405;BME280;7801;48.124;11.590;2023-05-03T02:30:26;96085.31;;;9.41;96.00
15405;BME280;7801;48.124;11.590;2023-05-03T02:32:51;96091.69;;;9.55;95.87
15405;BME280;7801;48.124;11.590;2023-05-03T02:35:21;96091.13;;;9.38;96.08
15405;BME280;7801;48.124;11.590;2023-05-03T02:37:47;96088.75;;;9.37;96.00
15405;BME280;7801;48.124;11.590;2023-05-03T02:40:13;96087.16;;;9.46;95.75
15405;BME280;7801;48.124;11.590;2023-05-03T02:42:40;96089.81;;;9.41;95.87
15405;BME280;7801;48.124;11.590;2023-05-03T02:45:06;96081.34;;;9.49;95.71
15405;BME280;7801;48.124;11.590;2023-05-03T02:47:31;96089.81;;;9.56;95.61
15405;BME280;7801;48.124;11.590;2023-05-03T02:49:58;96081.31;;;9.59;95.11
15405;BME280;7801;48.124;11.590;2023-05-03T02:52:26;96086.38;;;9.55;95.09
15405;BME280;7801;48.124;11.590;2023-05-03T02:54:52;96084.25;;;9.37;95.62
15405;BME280;7801;48.124;11.590;2023-05-03T02:57:20;96083.47;;;9.37;96.81
15405;BME280;7801;48.124;11.590;2023-05-03T02:59:47;96084.25;;;9.37;96.66
15405;BME280;7801;48.124;11.590;2023-05-03T03:02:12;96088.47;;;9.63;95.57
15405;BME280;7801;48.124;11.590;2023-05-03T03:04:37;96077.34;;;9.56;96.00
15405;BME280;7801;48.124;11.590;2023-05-03T03:07:04;96084.53;;;9.51;96.38
15405;BME280;7801;48.124;11.590;2023-05-03T03:09:33;96081.06;;;9.50;96.48
15405;BME280;7801;48.124;11.590;2023-05-03T03:12:00;96090.84;;;9.65;95.40
15405;BME280;7801;48.124;11.590;2023-05-03T03:14:29;96082.38;;;9.63;95.45
15405;BME280;7801;48.124;11.590;2023-05-03T03:16:54;96081.03;;;9.60;95.23
15405;BME280;7801;48.124;11.590;2023-05-03T03:19:21;96089.03;;;9.50;96.22
15405;BME280;7801;48.124;11.590;2023-05-03T03:21:47;96089.78;;;9.61;95.59
15405;BME280;7801;48.124;11.590;2023-05-03T03:24:14;96090.91;;;9.29;96.46
15405;BME280;7801;48.124;11.590;2023-05-03T03:26:40;96096.19;;;9.24;96.79
15405;BME280;7801;48.124;11.590;2023-05-03T03:29:09;96085.88;;;9.33;96.59
15405;BME280;7801;48.124;11.590;2023-05-03T03:31:37;96089.28;;;9.39;96.57
15405;BME280;7801;48.124;11.590;2023-05-03T03:34:04;96089.81;;;9.41;95.77
15405;BME280;7801;48.124;11.590;2023-05-03T03:36:31;96092.72;;;9.39;95.74
15405;BME280;7801;48.124;11.590;2023-05-03T03:38:58;96091.44;;;9.32;96.33
15405;BME280;7801;48.124;11.590;2023-05-03T03:41:24;96082.69;;;9.16;96.84
15405;BME280;7801;48.124;11.590;2023-05-03T03:43:52;96080.56;;;9.18;97.31
15405;BME280;7801;48.124;11.590;2023-05-03T03:46:18;96089.56;;;9.07;97.57
15405;BME280;7801;48.124;11.590;2023-05-03T03:48:46;96097.00;;;9.35;96.94
15405;BME280;7801;48.124;11.590;2023-05-03T03:51:12;96091.44;;;9.32;96.94
15405;BME280;7801;48.124;11.590;2023-05-03T03:53:39;96093.28;;;9.26;97.54
15405;BME280;7801;48.124;11.590;2023-05-03T03:56:04;96094.31;;;9.40;98.14
15405;BME280;7801;48.124;11.590;2023-05-03T03:58:32;96087.16;;;9.46;97.79
15405;BME280;7801;48.124;11.590;2023-05-03T04:00:58;96083.19;;;9.53;96.80
15405;BME280;7801;48.124;11.590;2023-05-03T04:03:26;96092.69;;;9.59;96.38
15405;BME280;7801;48.124;11.590;2023-05-03T04:05:53;96096.41;;;9.63;96.23
15405;BME280;7801;48.124;11.590;2023-05-03T04:08:23;96096.16;;;9.65;96.21
15405;BME280;7801;48.124;11.590;2023-05-03T04:10:49;96090.87;;;9.40;96.58
15405;BME280;7801;48.124;11.590;2023-05-03T04:13:16;96097.22;;;9.39;97.24
15405;BME280;7801;48.124;11.590;2023-05-03T04:15:43;96096.19;;;9.55;96.10
15405;BME280;7801;48.124;11.590;2023-05-03T04:18:09;96099.09;;;9.18;98.14
15405;BME280;7801;48.124;11.590;2023-05-03T04:20:37;96103.06;;;9.15;98.82
15405;BME280;7801;48.124;11.590;2023-05-03T04:23:04;96102.78;;;9.17;98.98
15405;BME280;7801;48.124;11.590;2023-05-03T04:25:34;96100.16;;;9.07;99.14
15405;BME280;7801;48.124;11.590;2023-05-03T04:28:01;96106.50;;;9.06;99.28
15405;BME280;7801;48.124;11.590;2023-05-03T04:30:27;96107.53;;;8.94;99.83
15405;BME280;7801;48.124;11.590;2023-05-03T04:32:56;96107.03;;;8.87;100.00
15405;BME280;7801;48.124;11.590;2023-05-03T04:35:25;96107.31;;;9.06;100.00
15405;BME280;7801;48.124;11.590;2023-05-03T04:37:54;96107.56;;;9.10;100.00
15405;BME280;7801;48.124;11.590;2023-05-03T04:40:25;96108.34;;;9.15;99.82
15405;BME280;7801;48.124;11.590;2023-05-03T04:42:52;96117.88;;;9.21;99.89
15405;BME280;7801;48.124;11.590;2023-05-03T04:45:20;96115.25;;;9.11;100.00
15405;BME280;7801;48.124;11.590;2023-05-03T04:47:47;96125.59;;;9.13;100.00
15405;BME280;7801;48.124;11.590;2023-05-03T04:50:14;96127.91;;;8.94;100.00
15405;BME280;7801;48.124;11.590;2023-05-03T04:52:40;96124.22;;;9.00;100.00
15405;BME280;7801;48.124;11.590;2023-05-03T04:55:05;96122.37;;;9.16;100.00
15405;BME280;7801;48.124;11.590;2023-05-03T04:57:33;96133.50;;;9.08;100.00
15405;BME280;7801;48.124;11.590;2023-05-03T05:00:00;96133.22;;;9.04;100.00
15405;BME280;7801;48.124;11.590;2023-05-03T05:02:30;96131.66;;;9.03;100.00
15405;BME280;7801;48.124;11.590;2023-05-03T05:04:57;96126.09;;;9.05;100.00
15405;BME280;7801;48.124;11.590;2023-05-03T05:07:23;96131.91;;;9.17;100.00
15405;BME280;7801;48.124;11.590;2023-05-03T05:09:49;96123.19;;;9.16;100.00
15405;BME280;7801;48.124;11.590;2023-05-03T05:12:15;96135.13;;;9.34;100.00
15405;BME280;7801;48.124;11.590;2023-05-03T05:14:42;96137.22;;;9.37;100.00
15405;BME280;7801;48.124;11.590;2023-05-03T05:17:10;96143.56;;;9.46;100.00
15405;BME280;7801;48.124;11.590;2023-05-03T05:19:37;96144.37;;;9.42;100.00
15405;BME280;7801;48.124;11.590;2023-05-03T05:22:03;96133.25;;;9.45;100.00
15405;BME280;7801;48.124;11.590;2023-05-03T05:24:30;96139.34;;;9.45;100.00
15405;BME280;7801;48.124;11.590;2023-05-03T05:26:57;96145.16;;;9.42;100.00
15405;BME280;7801;48.124;11.590;2023-05-03T05:29:25;96139.84;;;9.62;100.00
15405;BME280;7801;48.124;11.590;2023-05-03T05:31:52;96141.44;;;9.69;100.00
15405;BME280;7801;48.124;11.590;2023-05-03T05:34:18;96141.69;;;9.57;100.00
15405;BME280;7801;48.124;11.590;2023-05-03T05:36:44;96141.97;;;9.71;100.00
15405;BME280;7801;48.124;11.590;2023-05-03T05:39:12;96147.53;;;9.74;100.00
15405;BME280;7801;48.124;11.590;2023-05-03T05:41:39;96151.00;;;9.49;100.00
15405;BME280;7801;48.124;11.590;2023-05-03T05:44:08;96153.13;;;9.52;100.00
15405;BME280;7801;48.124;11.590;2023-05-03T05:46:35;96152.06;;;9.53;100.00
15405;BME280;7801;48.124;11.590;2023-05-03T05:49:01;96160.53;;;9.55;100.00
15405;BME280;7801;48.124;11.590;2023-05-03T05:51:26;96168.47;;;9.60;100.00
15405;BME280;7801;48.124;11.590;2023-05-03T05:53:53;96166.09;;;9.64;100.00
15405;BME280;7801;48.124;11.590;2023-05-03T05:56:20;96160.53;;;9.55;100.00
15405;BME280;7801;48.124;11.590;2023-05-03T05:58:46;96151.50;;;9.41;100.00
15405;BME280;7801;48.124;11.590;2023-05-03T06:01:16;96158.16;;;9.49;100.00
15405;BME280;7801;48.124;11.590;2023-05-03T06:03:41;96158.94;;;9.59;100.00
15405;BME280;7801;48.124;11.590;2023-05-03T06:06:07;96153.66;;;9.54;100.00
15405;BME280;7801;48.124;11.590;2023-05-03T06:08:33;96151.25;;;9.63;100.00
15405;BME280;7801;48.124;11.590;2023-05-03T06:10:59;96162.63;;;9.58;100.00
15405;BME280;7801;48.124;11.590;2023-05-03T06:13:25;96166.09;;;9.49;100.00
15405;BME280;7801;48.124;11.590;2023-05-03T06:15:53;96170.06;;;9.77;100.00
15405;BME280;7801;48.124;11.590;2023-05-03T06:18:20;96165.00;;;9.85;100.00
15405;BME280;7801;48.124;11.590;2023-05-03T06:20:49;96168.72;;;9.84;99.98
15405;BME280;7801;48.124;11.590;2023-05-03T06:23:14;96164.75;;;9.72;100.00
15405;BME280;7801;48.124;11.590;2023-05-03T06:25:40;96179.06;;;9.76;100.00
15405;BME280;7801;48.124;11.590;2023-05-03T06:28:06;96173.75;;;11.25;100.00
15405;BME280;7801;48.124;11.590;2023-05-03T06:30:32;96177.56;;;12.39;100.00
15405;BME280;7801;48.124;11.590;2023-05-03T06:32:57;96178.22;;;13.12;100.00
15405;BME280;7801;48.124;11.590;2023-05-03T06:35:24;96182.69;;;13.72;90.78
15405;BME280;7801;48.124;11.590;2023-05-03T06:37:49;96178.66;;;14.21;86.37
15405;BME280;7801;48.124;11.590;2023-05-03T06:40:16;96180.09;;;14.60;82.96
15405;BME280;7801;48.124;11.590;2023-05-03T06:42:44;96187.50;;;14.90;80.48
15405;BME280;7801;48.124;11.590;2023-05-03T06:45:10;96183.09;;;15.08;79.10
15405;BME280;7801;48.124;11.590;2023-05-03T06:47:36;96188.34;;;15.13;78.58
15405;BME280;7801;48.124;11.590;2023-05-03T06:50:01;96195.94;;;15.20;77.35
15405;BME280;7801;48.124;11.590;2023-05-03T06:52:27;96191.69;;;15.19;76.11
15405;BME280;7801;48.124;11.590;2023-05-03T06:54:52;96193.06;;;15.30;81.22
15405;BME280;7801;48.124;11.590;2023-05-03T06:57:19;96189.34;;;15.39;79.21
15405;BME280;7801;48.124;11.590;2023-05-03T06:59:45;96184.88;;;14.99;78.41
15405;BME280;7801;48.124;11.590;2023-05-03T07:02:12;96204.87;;;13.12;82.33
15405;BME280;7801;48.124;11.590;2023-05-03T07:04:37;96197.94;;;12.92;83.54
15405;BME280;7801;48.124;11.590;2023-05-03T07:07:05;96199.69;;;11.77;88.25
15405;BME280;7801;48.124;11.590;2023-05-03T07:09:31;96193.59;;;11.38;91.33
15405;BME280;7801;48.124;11.590;2023-05-03T07:12:01;96202.50;;;11.18;93.11
15405;BME280;7801;48.124;11.590;2023-05-03T07:14:30;96195.03;;;10.71;95.54
15405;BME280;7801;48.124;11.590;2023-05-03T07:16:58;96185.28;;;10.56;97.25
15405;BME280;7801;48.124;11.590;2023-05-03T07:19:24;96197.16;;;10.63;97.30
15405;BME280;7801;48.124;11.590;2023-05-03T07:21:51;96189.53;;;10.42;98.21
15405;BME280;7801;48.124;11.590;2023-05-03T07:24:21;96185.88;;;10.32;98.30
15405;BME280;7801;48.124;11.590;2023-05-03T07:26:50;96180.59;;;10.22;99.13
15405;BME280;7801;48.124;11.590;2023-05-03T07:29:17;96183.25;;;10.22;98.74
15405;BME280;7801;48.124;11.590;2023-05-03T07:31:45;96190.94;;;10.04;99.56
15405;BME280;7801;48.124;11.590;2023-05-03T07:34:39;96182.97;;;10.14;99.80
15405;BME280;7801;48.124;11.590;2023-05-03T07:37:06;96187.50;;;9.98;99.35
15405;BME280;7801;48.124;11.590;2023-05-03T07:39:35;96178.47;;;10.09;99.25
15405;BME280;7801;48.124;11.590;2023-05-03T07:42:01;96179.28;;;10.10;99.92
15405;BME280;7801;48.124;11.590;2023-05-03T07:44:29;96176.09;;;10.23;100.00
15405;BME280;7801;48.124;11.590;2023-05-03T07:46:56;96181.63;;;10.37;99.71
15405;BME280;7801;48.124;11.590;2023-05-03T07:49:23;96177.03;;;10.57;99.54
15405;BME280;7801;48.124;11.590;2023-05-03T07:51:52;96179.91;;;10.66;99.05
15405;BME280;7801;48.124;11.590;2023-05-03T07:54:20;96185.53;;;10.59;98.12
15405;BME280;7801;48.124;11.590;2023-05-03T07:56:49;96184.13;;;10.72;98.07
15405;BME280;7801;48.124;11.590;2023-05-03T07:59:20;96177.25;;;10.71;97.71
15405;BME280;7801;48.124;11.590;2023-05-03T08:01:46;96184.94;;;10.67;97.62
15405;BME280;7801;48.124;11.590;2023-05-03T08:04:13;96179.03;;;10.86;98.17
15405;BME280;7801;48.124;11.590;2023-05-03T08:06:39;96184.06;;;10.87;97.11
15405;BME280;7801;48.124;11.590;2023-05-03T08:09:07;96185.25;;;11.10;96.74
15405;BME280;7801;48.124;11.590;2023-05-03T08:11:35;96185.28;;;11.05;96.81
15405;BME280;7801;48.124;11.590;2023-05-03T08:14:02;96174.34;;;11.17;96.25
15405;BME280;7801;48.124;11.590;2023-05-03T08:16:53;96173.88;;;11.05;96.86
15405;BME280;7801;48.124;11.590;2023-05-03T08:22:42;96177.09;;;11.41;95.82
15405;BME280;7801;48.124;11.590;2023-05-03T08:28:37;96176.25;;;11.45;95.48
15405;BME280;7801;48.124;11.590;2023-05-03T08:31:03;96172.75;;;11.55;94.55
15405;BME280;7801;48.124;11.590;2023-05-03T08:33:31;96178.12;;;11.84;93.82
15405;BME280;7801;48.124;11.590;2023-05-03T08:35:58;96177.66;;;11.71;93.42
15405;BME280;7801;48.124;11.590;2023-05-03T08:38:23;96171.97;;;11.49;94.41
15405;BME280;7801;48.124;11.590;2023-05-03T08:40:57;96170.22;;;11.68;94.13
15405;BME280;7801;48.124;11.590;2023-05-03T08:43:27;96174.72;;;11.78;94.10
15405;BME280;7801;48.124;11.590;2023-05-03T08:45:54;96177.31;;;11.83;94.18
15405;BME280;7801;48.124;11.590;2023-05-03T08:48:20;96169.53;;;11.92;93.00
15405;BME280;7801;48.124;11.590;2023-05-03T08:50:49;96174.53;;;11.98;93.33
15405;BME280;7801;48.124;11.590;2023-05-03T08:53:16;96172.81;;;12.08;93.63
15405;BME280;7801;48.124;11.590;2023-05-03T08:55:44;96176.50;;;12.12;93.88
15405;BME280;7801;48.124;11.590;2023-05-03T08:58:09;96174.03;;;11.91;93.66
15405;BME280;7801;48.124;11.590;2023-05-03T09:00:37;96167.50;;;12.08;93.34
15405;BME280;7801;48.124;11.590;2023-05-03T09:03:03;96162.94;;;12.13;93.21
15405;BME280;7801;48.124;11.590;2023-05-03T09:05:33;96173.63;;;12.08;93.05
15405;BME280;7801;48.124;11.590;2023-05-03T09:08:00;96174.97;;;11.77;93.70
15405;BME280;7801;48.124;11.590;2023-05-03T09:10:30;96173.25;;;11.91;93.58
15405;BME280;7801;48.124;11.590;2023-05-03T09:12:59;96175.19;;;12.09;92.95
15405;BME280;7801;48.124;11.590;2023-05-03T09:15:30;96168.75;;;12.15;93.76
15405;BME280;7801;48.124;11.590;2023-05-03T09:18:29;96176.50;;;12.12;93.51
15405;BME280;7801;48.124;11.590;2023-05-03T09:20:56;96183.59;;;12.21;91.69
15405;BME280;7801;48.124;11.590;2023-05-03T09:23:29;96186.16;;;12.31;91.00
15405;BME280;7801;48.124;11.590;2023-05-03T09:25:57;96185.72;;;12.24;90.88
15405;BME280;7801;48.124;11.590;2023-05-03T09:28:38;96179.62;;;12.19;91.56
15405;BME280;7801;48.124;11.590;2023-05-03T09:31:07;96177.56;;;12.39;90.74
15405;BME280;7801;48.124;11.590;2023-05-03T09:33:35;96178.62;;;12.38;90.72
15405;BME280;7801;48.124;11.590;2023-05-03T09:36:04;96179.56;;;12.48;90.77
15405;BME280;7801;48.124;11.590;2023-05-03T09:38:36;96176.72;;;12.44;91.09
15405;BME280;7801;48.124;11.590;2023-05-03T09:41:30;96175.78;;;12.54;90.24
15405;BME280;7801;48.124;11.590;2023-05-03T09:43:57;96182.59;;;12.41;91.02
15405;BME280;7801;48.124;11.590;2023-05-03T09:46:31;96173.31;;;12.38;90.77
15405;BME280;7801;48.124;11.590;2023-05-03T09:48:58;96169.34;;;12.60;90.27
15405;BME280;7801;48.124;11.590;2023-05-03T09:51:25;96177.25;;;12.65;90.06
15405;BME280;7801;48.124;11.590;2023-05-03T09:53:55;96169.63;;;12.58;89.49
15405;BME280;7801;48.124;11.590;2023-05-03T09:56:25;96167.25;;;12.57;90.36
15405;BME280;7801;48.124;11.590;2023-05-03T09:58:53;96156.94;;;12.50;91.39
15405;BME280;7801;48.124;11.590;2023-05-03T10:01:20;96161.06;;;12.61;91.63
15405;BME280;7801;48.124;11.590;2023-05-03T10:03:51;96160.88;;;12.77;90.46
15405;BME280;7801;48.124;11.590;2023-05-03T10:06:35;96159.66;;;12.88;90.02
15405;BME280;7801;48.124;11.590;2023-05-03T10:09:06;96152.25;;;13.03;89.75
15405;BME280;7801;48.124;11.590;2023-05-03T10:11:42;96152.25;;;13.03;87.74
15405;BME280;7801;48.124;11.590;2023-05-03T10:14:12;96152.78;;;13.24;87.80
15405;BME280;7801;48.124;11.590;2023-05-03T10:16:43;96151.03;;;13.33;88.40
15405;BME280;7801;48.124;11.590;2023-05-03T10:19:27;96142.59;;;13.45;87.74
15405;BME280;7801;48.124;11.590;2023-05-03T10:22:10;96145.34;;;13.40;86.99
15405;BME280;7801;48.124;11.590;2023-05-03T10:25:07;96141.47;;;13.32;88.23
15405;BME280;7801;48.124;11.590;2023-05-03T10:28:00;96144.78;;;13.43;87.51
15405;BME280;7801;48.124;11.590;2023-05-03T10:30:37;96143.44;;;13.27;87.72
15405;BME280;7801;48.124;11.590;2023-05-03T10:35:52;96141.53;;;13.46;87.15
15405;BME280;7801;48.124;11.590;2023-05-03T10:38:26;96136.69;;;13.48;86.35
15405;BME280;7801;48.124;11.590;2023-05-03T10:40:54;96137.28;;;13.45;88.01
15405;BME280;7801;48.124;11.590;2023-05-03T10:46:08;96135.13;;;13.47;87.75
15405;BME280;7801;48.124;11.590;2023-05-03T10:48:37;96129.28;;;13.45;87.49
15405;BME280;7801;48.124;11.590;2023-05-03T10:57:47;96139.78;;;13.55;87.72
15405;BME280;7801;48.124;11.590;2023-05-03T11:05:39;96129.84;;;13.74;87.98
15405;BME280;7801;48.124;11.590;2023-05-03T11:08:16;96126.94;;;13.57;87.71
15405;BME280;7801;48.124;11.590;2023-05-03T11:10:45;96129.81;;;13.61;87.09
15405;BME280;7801;48.124;11.590;2023-05-03T11:13:13;96126.78;;;13.67;86.87
15405;BME280;7801;48.124;11.590;2023-05-03T11:15:44;96129.69;;;13.85;86.95
15405;BME280;7801;48.124;11.590;2023-05-03T11:18:10;96130.03;;;13.64;86.62
15405;BME280;7801;48.124;11.590;2023-05-03T11:20:36;96123.69;;;13.60;86.85
15405;BME280;7801;48.124;11.590;2023-05-03T11:23:07;96123.03;;;13.68;86.48
15405;BME280;7801;48.124;11.590;2023-05-03T11:25:34;96120.09;;;13.84;84.95
15405;BME280;7801;48.124;11.590;2023-05-03T11:28:01;96117.84;;;13.91;85.04
15405;BME280;7801;48.124;11.590;2023-05-03T11:30:32;96125.34;;;13.89;84.21
15405;BME280;7801;48.124;11.590;2023-05-03T11:32:58;96110.31;;;13.93;84.54
15405;BME280;7801;48.124;11.590;2023-05-03T11:35:30;96112.72;;;14.08;84.34
15405;BME280;7801;48.124;11.590;2023-05-03T11:37:59;96114.69;;;14.02;84.53
15405;BME280;7801;48.124;11.590;2023-05-03T11:40:24;96101.06;;;14.04;84.78
15405;BME280;7801;48.124;11.590;2023-05-03T11:42:54;96098.69;;;14.02;85.13
15405;BME280;7801;48.124;11.590;2023-05-03T11:45:45;96103.94;;;14.07;83.92
15405;BME280;7801;48.124;11.590;2023-05-03T11:48:17;96104.81;;;14.03;82.36
15405;BME280;7801;48.124;11.590;2023-05-03T11:51:07;96108.69;;;14.10;84.18
15405;BME280;7801;48.124;11.590;2023-05-03T11:53:37;96100.97;;;14.23;83.46
15405;BME280;7801;48.124;11.590;2023-05-03T11:56:13;96097.09;;;14.29;83.45
15405;BME280;7801;48.124;11.590;2023-05-03T11:58:53;96106.28;;;14.36;81.15
15405;BME280;7801;48.124;11.590;2023-05-03T12:01:24;96101.72;;;14.37;81.99
15405;BME280;7801;48.124;11.590;2023-05-03T12:04:10;96095.31;;;14.38;80.85
15405;BME280;7801;48.124;11.590;2023-05-03T12:06:39;96096.53;;;14.46;81.00
15405;BME280;7801;48.124;11.590;2023-05-03T12:09:13;96092.53;;;14.57;79.86
15405;BME280;7801;48.124;11.590;2023-05-03T12:11:41;96096.13;;;14.52;80.59
15405;BME280;7801;48.124;11.590;2023-05-03T12:14:08;96090.75;;;14.66;78.64
15405;BME280;7801;48.124;11.590;2023-05-03T12:16:50;96078.59;;;14.73;78.25
15405;BME280;7801;48.124;11.590;2023-05-03T12:19:27;96086.56;;;14.87;77.30
15405;BME280;7801;48.124;11.590;2023-05-03T12:21:54;96085.97;;;14.90;79.97
15405;BME280;7801;48.124;11.590;2023-05-03T12:24:23;96084.94;;;15.00;79.72
15405;BME280;7801;48.124;11.590;2023-05-03T12:26:51;96080.19;;;14.97;78.29
15405;BME280;7801;48.124;11.590;2023-05-03T12:29:16;96074.81;;;15.10;76.82
15405;BME280;7801;48.124;11.590;2023-05-03T12:31:43;96076.59;;;15.15;72.70
15405;BME280;7801;48.124;11.590;2023-05-03T12:34:10;96083.19;;;15.18;74.26
15405;BME280;7801;48.124;11.590;2023-05-03T12:36:38;96081.94;;;15.15;74.95
15405;BME280;7801;48.124;11.590;2023-05-03T12:39:04;96083.66;;;15.20;72.87
15405;BME280;7801;48.124;11.590;2023-05-03T12:41:34;96075.94;;;15.18;72.80
15405;BME280;7801;48.124;11.590;2023-05-03T12:44:03;96070.59;;;15.18;71.99
15405;BME280;7801;48.124;11.590;2023-05-03T12:46:30;96071.28;;;15.24;73.57
15405;BME280;7801;48.124;11.590;2023-05-03T12:48:56;96068.59;;;15.24;71.99
15405;BME280;7801;48.124;11.590;2023-05-03T12:51:25;96056.44;;;15.18;72.34
15405;BME280;7801;48.124;11.590;2023-05-03T12:53:51;96063.84;;;15.21;73.38
15405;BME280;7801;48.124;11.590;2023-05-03T12:56:18;96064.06;;;15.24;73.85
15405;BME280;7801;48.124;11.590;2023-05-03T12:58:48;96061.97;;;15.21;73.96
15405;BME280;7801;48.124;11.590;2023-05-03T13:01:16;96053.44;;;15.10;74.21
15405;BME280;7801;48.124;11.590;2023-05-03T13:03:43;96056.03;;;15.24;74.24
15405;BME280;7801;48.124;11.590;2023-05-03T13:06:10;96055.50;;;15.36;74.70
15405;BME280;7801;48.124;11.590;2023-05-03T13:08:37;96054.44;;;15.45;72.08
15405;BME280;7801;48.124;11.590;2023-05-03T13:11:02;96041.38;;;15.44;71.62
15405;BME280;7801;48.124;11.590;2023-05-03T13:13:30;96042.44;;;15.57;70.90
15405;BME280;7801;48.124;11.590;2023-05-03T13:15:57;96038.31;;;15.59;69.79
15405;BME280;7801;48.124;11.590;2023-05-03T13:18:26;96036.78;;;15.58;69.47
15405;BME280;7801;48.124;11.590;2023-05-03T13:20:51;96038.69;;;15.66;69.60
15405;BME280;7801;48.124;11.590;2023-05-03T13:23:16;96036.69;;;15.72;69.52
15405;BME280;7801;48.124;11.590;2023-05-03T13:25:43;96038.13;;;15.78;67.32
15405;BME280;7801;48.124;11.590;2023-05-03T13:28:08;96036.84;;;15.75;68.34
15405;BME280;7801;48.124;11.590;2023-05-03T13:30:34;96028.66;;;15.80;68.52
15405;BME280;7801;48.124;11.590;2023-05-03T13:33:00;96022.44;;;15.94;68.80
15405;BME280;7801;48.124;11.590;2023-05-03T13:35:27;96025.31;;;16.06;67.89
15405;BME280;7801;48.124;11.590;2023-05-03T13:37:53;96016.34;;;16.10;67.92
15405;BME280;7801;48.124;11.590;2023-05-03T13:40:20;96029.13;;;16.22;69.07